Time;durP1;ratioP1;P1;durP2;ratioP2;P2;SDS_P1;SDS_P2;PMS_P1;PMS_P2;Temp;Humidity;BMP_temperature;BMP_pressure;BME280_temperature;BME280_humidity;BME280_pressure;Samples;Min_cycle;Max_cycle;Signal;HPM_P1;HPM_P2
2022/10/06 00:01:40;;;;;;;1.27;0.75;;;;;;;;;;5087386;28;20420;-84
2022/10/06 00:04:08;;;;;;;1.87;0.83;;;;;;;;;;5098119;27;20419;-84
2022/10/06 00:06:36;;;;;;;1.00;0.70;;;;;;;;;;5116196;27;20472;-83
2022/10/06 00:09:10;;;;;;;1.17;0.77;;;;;;;;;;5107421;28;20776;-84
2022/10/06 00:11:38;;;;;;;1.83;0.77;;;;;;;;;;5094045;27;20418;-83
2022/10/06 00:14:06;;;;;;;2.83;0.63;;;;;;;;;;5113528;28;20408;-83
2022/10/06 00:16:34;;;;;;;1.15;0.68;;;;;;;;;;5082942;28;20880;-83
2022/10/06 00:19:07;;;;;;;2.50;0.70;;;;;;;;;;5091156;28;20428;-84
2022/10/06 00:21:39;;;;;;;3.80;0.80;;;;;;;;;;5101614;28;20953;-86
2022/10/06 00:24:14;;;;;;;1.90;0.60;;;;;;;;;;5105466;27;20844;-85
2022/10/06 00:26:47;;;;;;;2.58;0.60;;;;;;;;;;5094359;28;20419;-83
2022/10/06 00:29:14;;;;;;;1.80;0.60;;;;;;;;;;5084539;28;20430;-82
2022/10/06 00:31:47;;;;;;;1.40;0.60;;;;;;;;;;5105057;28;20800;-83
2022/10/06 00:34:20;;;;;;;1.40;0.63;;;;;;;;;;5111231;28;20424;-86
2022/10/06 00:36:48;;;;;;;1.10;0.50;;;;;;;;;;5089704;28;20427;-84
2022/10/06 00:39:18;;;;;;;1.05;0.70;;;;;;;;;;5083510;28;20762;-86
2022/10/06 00:41:52;;;;;;;3.47;0.63;;;;;;;;;;5099295;27;20407;-84
2022/10/06 00:44:25;;;;;;;1.65;0.70;;;;;;;;;;5097235;27;20418;-84
2022/10/06 00:46:53;;;;;;;1.42;0.50;;;;;;;;;;5075383;28;20409;-86
2022/10/06 00:49:28;;;;;;;1.90;0.70;;;;;;;;;;5109953;28;20424;-85
2022/10/06 00:52:02;;;;;;;1.55;0.60;;;;;;;;;;5104760;28;20412;-83
2022/10/06 00:54:36;;;;;;;2.13;0.70;;;;;;;;;;5094692;27;20418;-85
2022/10/06 00:57:04;;;;;;;0.80;0.60;;;;;;;;;;5091356;28;20426;-84
2022/10/06 00:59:33;;;;;;;1.50;0.68;;;;;;;;;;5090388;28;20424;-83
2022/10/06 01:02:09;;;;;;;2.40;0.53;;;;;;;;;;5083521;28;20412;-84
2022/10/06 01:04:40;;;;;;;1.70;0.75;;;;;;;;;;5106176;28;20419;-84
2022/10/06 01:07:08;;;;;;;4.05;0.80;;;;;;;;;;5096802;28;20817;-83
2022/10/06 01:09:42;;;;;;;0.90;0.60;;;;;;;;;;5092669;27;20426;-84
2022/10/06 01:12:10;;;;;;;1.40;0.60;;;;;;;;;;5115735;27;20418;-85
2022/10/06 01:14:39;;;;;;;1.67;0.65;;;;;;;;;;5110927;28;20431;-86
2022/10/06 01:17:16;;;;;;;2.80;0.70;;;;;;;;;;5079358;27;20422;-84
2022/10/06 01:19:48;;;;;;;2.63;0.70;;;;;;;;;;5110577;28;20408;-83
2022/10/06 01:22:28;;;;;;;0.73;0.60;;;;;;;;;;5094330;28;20408;-83
2022/10/06 01:24:56;;;;;;;2.63;0.63;;;;;;;;;;5091855;28;20424;-83
2022/10/06 01:27:30;;;;;;;1.92;0.80;;;;;;;;;;5105401;27;20766;-83
2022/10/06 01:29:58;;;;;;;1.55;0.70;;;;;;;;;;5107931;27;20412;-83
2022/10/06 01:32:34;;;;;;;3.08;0.70;;;;;;;;;;5113429;28;20405;-84
2022/10/06 01:35:08;;;;;;;1.80;0.73;;;;;;;;;;5113652;28;20943;-84
2022/10/06 01:37:37;;;;;;;2.53;0.70;;;;;;;;;;5094177;28;20423;-83
2022/10/06 01:40:10;;;;;;;2.45;0.70;;;;;;;;;;5113596;28;20393;-85
2022/10/06 01:42:38;;;;;;;1.50;0.70;;;;;;;;;;5109775;28;20423;-85
2022/10/06 01:45:07;;;;;;;1.70;0.70;;;;;;;;;;5100406;28;20416;-83
2022/10/06 01:47:39;;;;;;;1.15;0.60;;;;;;;;;;5074041;28;20402;-83
2022/10/06 01:50:08;;;;;;;1.13;0.57;;;;;;;;;;5083517;28;20422;-84
2022/10/06 01:52:43;;;;;;;0.77;0.60;;;;;;;;;;5077550;28;20426;-84
2022/10/06 01:55:10;;;;;;;1.77;0.60;;;;;;;;;;5089678;28;20916;-84
2022/10/06 01:57:43;;;;;;;0.80;0.60;;;;;;;;;;5076243;28;20425;-84
2022/10/06 02:00:17;;;;;;;1.38;0.57;;;;;;;;;;5104197;27;20409;-83
2022/10/06 02:02:47;;;;;;;3.85;0.60;;;;;;;;;;5106995;27;20406;-85
2022/10/06 02:05:14;;;;;;;2.45;0.60;;;;;;;;;;5098673;27;20417;-84
2022/10/06 02:07:47;;;;;;;1.60;0.60;;;;;;;;;;5106956;28;20412;-87
2022/10/06 02:10:21;;;;;;;3.47;0.60;;;;;;;;;;5092340;28;20413;-83
2022/10/06 02:12:54;;;;;;;1.60;0.63;;;;;;;;;;5073465;28;20496;-84
2022/10/06 02:15:27;;;;;;;2.83;0.75;;;;;;;;;;5085184;27;20418;-83
2022/10/06 02:18:00;;;;;;;3.60;0.60;;;;;;;;;;5092420;28;20416;-85
2022/10/06 02:20:27;;;;;;;1.20;0.60;;;;;;;;;;5090091;27;20424;-84
2022/10/06 02:22:57;;;;;;;1.00;0.60;;;;;;;;;;5111620;27;20406;-84
2022/10/06 02:25:30;;;;;;;1.00;0.60;;;;;;;;;;5093743;28;20424;-84
2022/10/06 02:27:59;;;;;;;2.20;0.60;;;;;;;;;;5092944;28;20900;-85
2022/10/06 02:30:27;;;;;;;1.80;0.70;;;;;;;;;;5092801;28;20421;-84
2022/10/06 02:33:00;;;;;;;2.33;0.70;;;;;;;;;;5084839;28;20461;-84
2022/10/06 02:35:28;;;;;;;2.60;0.80;;;;;;;;;;5109167;28;20420;-83
2022/10/06 02:37:57;;;;;;;3.90;0.80;;;;;;;;;;5110501;28;20859;-83
2022/10/06 02:40:26;;;;;;;3.03;0.75;;;;;;;;;;5110310;28;20411;-83
2022/10/06 02:42:59;;;;;;;2.28;0.70;;;;;;;;;;5098809;28;20419;-84
2022/10/06 02:45:31;;;;;;;4.57;0.85;;;;;;;;;;5087847;28;20420;-84
2022/10/06 02:47:59;;;;;;;2.67;0.70;;;;;;;;;;5093521;28;20744;-83
2022/10/06 02:50:33;;;;;;;4.35;0.93;;;;;;;;;;5090414;28;20418;-85
2022/10/06 02:53:08;;;;;;;3.80;0.77;;;;;;;;;;5073264;28;20409;-83
2022/10/06 02:55:41;;;;;;;5.03;0.90;;;;;;;;;;5073779;28;20781;-84
2022/10/06 02:58:10;;;;;;;2.65;0.80;;;;;;;;;;5073229;28;20421;-85
2022/10/06 03:00:43;;;;;;;2.10;0.73;;;;;;;;;;5073443;28;20409;-84
2022/10/06 03:03:11;;;;;;;4.40;0.88;;;;;;;;;;5092030;28;20421;-84
2022/10/06 03:05:43;;;;;;;3.67;0.95;;;;;;;;;;5091817;28;20422;-85
2022/10/06 03:08:18;;;;;;;2.88;0.70;;;;;;;;;;5074093;28;20793;-83
2022/10/06 03:10:46;;;;;;;4.20;0.90;;;;;;;;;;5092668;28;20410;-84
2022/10/06 03:13:18;;;;;;;4.07;0.97;;;;;;;;;;5091341;28;20423;-84
2022/10/06 03:15:46;;;;;;;3.77;0.93;;;;;;;;;;5088243;28;20931;-86
2022/10/06 03:18:19;;;;;;;4.30;0.90;;;;;;;;;;5104874;28;20420;-84
2022/10/06 03:20:47;;;;;;;4.32;1.08;;;;;;;;;;5092465;28;20423;-84
2022/10/06 03:23:15;;;;;;;4.85;0.90;;;;;;;;;;5111793;28;20413;-83
2022/10/06 03:25:44;;;;;;;4.95;0.90;;;;;;;;;;5111642;28;20892;-85
2022/10/06 03:28:17;;;;;;;5.93;1.00;;;;;;;;;;5092724;28;20431;-85
2022/10/06 03:30:45;;;;;;;5.95;1.10;;;;;;;;;;5089472;28;20416;-83
2022/10/06 03:33:18;;;;;;;4.50;1.00;;;;;;;;;;5097191;28;20418;-86
2022/10/06 03:35:47;;;;;;;5.30;1.27;;;;;;;;;;5112998;28;20410;-85
2022/10/06 03:38:15;;;;;;;5.60;0.90;;;;;;;;;;5115647;28;20411;-84
2022/10/06 03:40:49;;;;;;;3.72;1.02;;;;;;;;;;5092125;28;20401;-83
2022/10/06 03:43:17;;;;;;;4.40;1.00;;;;;;;;;;5107333;27;20413;-83
2022/10/06 03:45:55;;;;;;;6.70;1.25;;;;;;;;;;5093737;28;20420;-82
2022/10/06 03:48:24;;;;;;;4.78;1.08;;;;;;;;;;5094505;27;20431;-83
2022/10/06 03:50:57;;;;;;;4.55;0.90;;;;;;;;;;5101334;28;20787;-85
2022/10/06 03:53:27;;;;;;;8.07;1.10;;;;;;;;;;5091862;27;20416;-83
2022/10/06 03:56:02;;;;;;;5.67;0.97;;;;;;;;;;5101162;28;20420;-85
2022/10/06 03:58:36;;;;;;;5.20;1.00;;;;;;;;;;5088875;28;20422;-83
2022/10/06 04:01:06;;;;;;;10.20;1.30;;;;;;;;;;5076036;28;20978;-84
2022/10/06 04:03:34;;;;;;;4.93;1.10;;;;;;;;;;5102031;28;20400;-83
2022/10/06 04:06:03;;;;;;;7.43;1.10;;;;;;;;;;5092997;28;20417;-83
2022/10/06 04:08:36;;;;;;;5.00;1.07;;;;;;;;;;5080919;28;20452;-84
2022/10/06 04:11:06;;;;;;;2.38;0.80;;;;;;;;;;5092690;28;20431;-84
2022/10/06 04:13:39;;;;;;;5.60;1.08;;;;;;;;;;5097661;28;20438;-85
2022/10/06 04:16:13;;;;;;;5.22;1.02;;;;;;;;;;5104057;27;20414;-84
2022/10/06 04:18:41;;;;;;;5.03;0.98;;;;;;;;;;5117551;27;20400;-84
2022/10/06 04:21:14;;;;;;;5.90;1.17;;;;;;;;;;5093510;28;20406;-82
2022/10/06 04:23:42;;;;;;;4.30;1.00;;;;;;;;;;5111388;28;20407;-82
2022/10/06 04:26:17;;;;;;;4.78;0.90;;;;;;;;;;5086391;27;20414;-83
2022/10/06 04:28:52;;;;;;;6.22;1.10;;;;;;;;;;5095852;28;20404;-85
2022/10/06 04:31:25;;;;;;;6.00;1.00;;;;;;;;;;5094087;28;20425;-84
2022/10/06 04:33:59;;;;;;;8.02;1.38;;;;;;;;;;5092232;28;20416;-83
2022/10/06 04:36:34;;;;;;;7.45;1.20;;;;;;;;;;5109082;27;20400;-86
2022/10/06 04:39:03;;;;;;;6.22;1.23;;;;;;;;;;5093505;28;20414;-83
2022/10/06 04:41:34;;;;;;;4.78;1.02;;;;;;;;;;5084051;28;20415;-82
2022/10/06 04:44:09;;;;;;;5.73;1.00;;;;;;;;;;5084655;28;20509;-85
2022/10/06 04:46:42;;;;;;;5.97;1.23;;;;;;;;;;5113214;28;20423;-83
2022/10/06 04:49:10;;;;;;;6.15;1.60;;;;;;;;;;5102281;28;20424;-82
2022/10/06 04:51:37;;;;;;;5.80;1.00;;;;;;;;;;5099642;27;20416;-84
2022/10/06 04:54:11;;;;;;;8.68;1.13;;;;;;;;;;5092003;28;21094;-85
2022/10/06 04:56:41;;;;;;;7.75;1.10;;;;;;;;;;5093367;27;20421;-84
2022/10/06 04:59:09;;;;;;;10.15;1.40;;;;;;;;;;5081549;27;20417;-84
2022/10/06 05:01:44;;;;;;;7.90;1.40;;;;;;;;;;5097144;28;20409;-85
2022/10/06 05:04:13;;;;;;;11.63;1.60;;;;;;;;;;5101264;28;20491;-83
2022/10/06 05:06:46;;;;;;;9.87;1.23;;;;;;;;;;5097820;28;20409;-84
2022/10/06 05:09:14;;;;;;;11.68;1.52;;;;;;;;;;5086901;27;20421;-84
2022/10/06 05:11:53;;;;;;;8.15;1.30;;;;;;;;;;5088893;28;20906;-84
2022/10/06 05:14:26;;;;;;;7.43;1.35;;;;;;;;;;5093279;27;20422;-85
2022/10/06 05:16:59;;;;;;;8.90;1.15;;;;;;;;;;5093770;28;20412;-84
2022/10/06 05:19:28;;;;;;;9.30;1.40;;;;;;;;;;5079855;28;20444;-83
2022/10/06 05:22:02;;;;;;;6.60;1.27;;;;;;;;;;5074262;28;20875;-83
2022/10/06 05:24:31;;;;;;;6.05;1.13;;;;;;;;;;5089858;28;20412;-83
2022/10/06 05:27:02;;;;;;;6.90;1.33;;;;;;;;;;5090156;28;20425;-85
2022/10/06 05:29:35;;;;;;;12.32;1.27;;;;;;;;;;5082633;28;20420;-83
2022/10/06 05:32:09;;;;;;;10.98;1.27;;;;;;;;;;5090841;28;20423;-83
2022/10/06 05:34:42;;;;;;;15.57;1.50;;;;;;;;;;5121803;27;20423;-83
2022/10/06 05:37:15;;;;;;;9.40;1.57;;;;;;;;;;5089076;28;20420;-85
2022/10/06 05:39:58;;;;;;;6.35;1.23;;;;;;;;;;5104995;28;20410;-83
2022/10/06 05:42:27;;;;;;;5.70;1.23;;;;;;;;;;5090794;28;20425;-84
2022/10/06 05:45:00;;;;;;;7.60;1.10;;;;;;;;;;5101307;27;20416;-84
2022/10/06 05:47:29;;;;;;;7.82;1.15;;;;;;;;;;5074702;28;20414;-84
2022/10/06 05:50:02;;;;;;;11.23;1.40;;;;;;;;;;5089173;27;20406;-85
2022/10/06 05:52:37;;;;;;;7.93;1.33;;;;;;;;;;5077937;28;20421;-82
2022/10/06 05:55:10;;;;;;;10.23;1.35;;;;;;;;;;5087847;27;20422;-83
2022/10/06 05:57:44;;;;;;;5.10;1.13;;;;;;;;;;5098332;28;20421;-82
2022/10/06 06:00:12;;;;;;;11.48;1.40;;;;;;;;;;5089577;27;20436;-84
2022/10/06 06:02:45;;;;;;;11.60;1.50;;;;;;;;;;5087577;27;20406;-83
2022/10/06 06:05:18;;;;;;;9.77;1.27;;;;;;;;;;5090163;27;20413;-83
2022/10/06 06:07:46;;;;;;;9.73;1.58;;;;;;;;;;5095428;28;20421;-84
2022/10/06 06:10:19;;;;;;;7.82;1.40;;;;;;;;;;5094225;28;20433;-83
2022/10/06 06:12:54;;;;;;;9.80;1.55;;;;;;;;;;5101598;27;20421;-84
2022/10/06 06:18:18;;;;;;;10.27;1.30;;;;;;;;;;5077667;28;20901;-83
2022/10/06 06:20:54;;;;;;;11.13;1.52;;;;;;;;;;5091819;28;20422;-84
2022/10/06 06:23:30;;;;;;;7.83;1.20;;;;;;;;;;5089120;27;20414;-83
2022/10/06 06:26:05;;;;;;;11.00;1.50;;;;;;;;;;5088724;28;20915;-84
2022/10/06 06:28:44;;;;;;;9.07;1.50;;;;;;;;;;5085441;28;20421;-86
2022/10/06 06:31:19;;;;;;;12.05;1.70;;;;;;;;;;5089265;28;20808;-83
2022/10/06 06:33:50;;;;;;;13.00;1.33;;;;;;;;;;5092659;28;20423;-84
2022/10/06 06:36:19;;;;;;;6.32;1.50;;;;;;;;;;5096768;28;20913;-84
2022/10/06 06:38:53;;;;;;;9.05;1.40;;;;;;;;;;5085688;28;20434;-84
2022/10/06 06:41:27;;;;;;;12.23;1.70;;;;;;;;;;5088015;28;20431;-84
2022/10/06 06:44:09;;;;;;;7.43;1.23;;;;;;;;;;5105313;27;20404;-83
2022/10/06 06:46:50;;;;;;;11.88;1.50;;;;;;;;;;5090639;28;20416;-84
2022/10/06 06:49:23;;;;;;;13.35;2.58;;;;;;;;;;5077217;28;20421;-84
2022/10/06 06:52:02;;;;;;;11.93;4.47;;;;;;;;;;5087031;28;20453;-84
2022/10/06 06:54:36;;;;;;;10.30;1.75;;;;;;;;;;5086222;28;20427;-82
2022/10/06 06:57:12;;;;;;;11.52;1.60;;;;;;;;;;5083361;28;20420;-83
2022/10/06 06:59:49;;;;;;;8.30;1.70;;;;;;;;;;5085540;28;20430;-85
2022/10/06 07:02:25;;;;;;;8.27;1.50;;;;;;;;;;5090306;28;20420;-83
2022/10/06 07:04:53;;;;;;;12.45;1.52;;;;;;;;;;5089498;28;20420;-84
2022/10/06 07:07:25;;;;;;;10.57;1.55;;;;;;;;;;5092201;28;20433;-84
2022/10/06 07:09:59;;;;;;;9.00;1.63;;;;;;;;;;5075028;28;20421;-83
2022/10/06 07:12:33;;;;;;;8.75;1.30;;;;;;;;;;5084588;28;20426;-85
2022/10/06 07:26:30;;;;;;;9.93;1.70;;;;;;;;;;5077308;28;20416;-83
2022/10/06 07:29:03;;;;;;;7.93;1.70;;;;;;;;;;5069776;28;20424;-82
2022/10/06 07:31:38;;;;;;;12.30;1.80;;;;;;;;;;5069698;28;20794;-85
2022/10/06 07:34:07;;;;;;;8.73;1.63;;;;;;;;;;5081121;28;20420;-82
2022/10/06 07:36:35;;;;;;;14.80;1.95;;;;;;;;;;5083240;28;20412;-84
2022/10/06 07:39:09;;;;;;;12.27;2.20;;;;;;;;;;5082415;28;20413;-85
2022/10/06 07:41:37;;;;;;;8.68;1.58;;;;;;;;;;5065139;28;20788;-85
2022/10/06 07:44:05;;;;;;;8.05;1.20;;;;;;;;;;5084325;28;20423;-83
2022/10/06 07:46:41;;;;;;;9.13;1.45;;;;;;;;;;5067578;28;22059;-81
2022/10/06 07:49:17;;;;;;;9.70;1.67;;;;;;;;;;5063360;28;20428;-82
2022/10/06 07:51:52;;;;;;;7.93;1.53;;;;;;;;;;5073913;28;20458;-85
2022/10/06 07:54:25;;;;;;;9.65;2.15;;;;;;;;;;5069836;28;20416;-85
2022/10/06 07:57:14;;;;;;;10.48;1.65;;;;;;;;;;5069055;28;20420;-84
2022/10/06 07:59:46;;;;;;;11.98;1.85;;;;;;;;;;5093642;28;20416;-84
2022/10/06 08:02:16;;;;;;;10.88;1.73;;;;;;;;;;5089121;28;20439;-83
2022/10/06 08:04:49;;;;;;;11.63;1.48;;;;;;;;;;5102113;28;20427;-85
2022/10/06 08:07:22;;;;;;;10.02;1.38;;;;;;;;;;5102646;28;20620;-86
2022/10/06 08:09:55;;;;;;;8.27;1.38;;;;;;;;;;5084986;28;20427;-85
2022/10/06 08:12:36;;;;;;;11.70;1.75;;;;;;;;;;5084023;28;20408;-85
2022/10/06 08:15:10;;;;;;;11.25;1.52;;;;;;;;;;5083693;28;20416;-84
2022/10/06 08:17:40;;;;;;;9.10;1.52;;;;;;;;;;5102226;28;20401;-86
2022/10/06 08:20:13;;;;;;;8.95;1.63;;;;;;;;;;5065240;28;20992;-87
2022/10/06 08:22:47;;;;;;;14.73;2.13;;;;;;;;;;5058501;28;20435;-86
2022/10/06 08:25:20;;;;;;;11.85;1.45;;;;;;;;;;5064977;28;20428;-84
2022/10/06 08:27:47;;;;;;;12.80;1.88;;;;;;;;;;5061469;28;20408;-86
2022/10/06 08:30:21;;;;;;;10.77;1.60;;;;;;;;;;5057989;28;20415;-85
2022/10/06 08:32:50;;;;;;;8.80;1.40;;;;;;;;;;5063678;28;20432;-86
2022/10/06 08:35:23;;;;;;;7.03;1.50;;;;;;;;;;5080720;28;20416;-84
2022/10/06 08:37:55;;;;;;;10.93;1.70;;;;;;;;;;5062586;28;20431;-84
2022/10/06 08:40:29;;;;;;;8.45;1.35;;;;;;;;;;5081635;28;20428;-84
2022/10/06 08:42:57;;;;;;;12.93;1.73;;;;;;;;;;5068513;28;20443;-83
2022/10/06 08:45:28;;;;;;;10.35;1.30;;;;;;;;;;5069810;28;20427;-85
2022/10/06 08:48:04;;;;;;;11.27;1.67;;;;;;;;;;5072561;28;20427;-83
2022/10/06 08:50:43;;;;;;;12.00;1.60;;;;;;;;;;5081162;28;20425;-85
2022/10/06 08:53:14;;;;;;;9.65;1.95;;;;;;;;;;5103205;28;20397;-85
2022/10/06 08:55:46;;;;;;;10.20;1.38;;;;;;;;;;5086461;28;20436;-84
2022/10/06 08:58:29;;;;;;;14.17;2.07;;;;;;;;;;5069350;28;20436;-84
2022/10/06 09:01:12;;;;;;;10.82;1.55;;;;;;;;;;5058861;28;20429;-85
2022/10/06 09:03:48;;;;;;;8.43;1.50;;;;;;;;;;5067460;28;20436;-84
2022/10/06 09:06:22;;;;;;;11.88;1.52;;;;;;;;;;5076348;28;21462;-85
2022/10/06 09:08:52;;;;;;;8.87;1.50;;;;;;;;;;5062116;28;20432;-85
2022/10/06 09:11:34;;;;;;;7.88;1.60;;;;;;;;;;5061247;28;20428;-83
2022/10/06 09:14:04;;;;;;;9.70;1.63;;;;;;;;;;5062988;28;20432;-84
2022/10/06 09:16:35;;;;;;;7.87;1.60;;;;;;;;;;5065992;28;20428;-86
2022/10/06 09:19:08;;;;;;;14.05;1.80;;;;;;;;;;5057389;28;20908;-84
2022/10/06 09:21:38;;;;;;;9.90;1.50;;;;;;;;;;5076895;28;20447;-86
2022/10/06 09:24:13;;;;;;;7.85;1.48;;;;;;;;;;5060643;28;20428;-87
2022/10/06 09:26:44;;;;;;;9.55;1.55;;;;;;;;;;5069690;28;20834;-86
2022/10/06 09:29:12;;;;;;;9.32;1.30;;;;;;;;;;5073020;28;20911;-85
2022/10/06 09:31:41;;;;;;;11.40;1.73;;;;;;;;;;5067006;28;20423;-86
2022/10/06 09:34:19;;;;;;;10.35;1.45;;;;;;;;;;5067413;28;20424;-86
2022/10/06 09:37:06;;;;;;;10.77;1.73;;;;;;;;;;5069630;28;21174;-86
2022/10/06 09:39:36;;;;;;;8.57;1.42;;;;;;;;;;5068799;28;20440;-84
2022/10/06 09:42:12;;;;;;;9.23;1.40;;;;;;;;;;5073278;28;21136;-86
2022/10/06 09:44:57;;;;;;;9.75;1.45;;;;;;;;;;5073414;28;20451;-85
2022/10/06 09:47:34;;;;;;;10.10;1.70;;;;;;;;;;5077453;28;20447;-85
2022/10/06 09:50:10;;;;;;;10.73;1.42;;;;;;;;;;5070083;28;20430;-85
2022/10/06 09:52:44;;;;;;;13.32;1.63;;;;;;;;;;5071971;28;20424;-86
2022/10/06 09:55:18;;;;;;;10.23;1.67;;;;;;;;;;5088625;28;20482;-85
2022/10/06 09:57:52;;;;;;;8.07;1.55;;;;;;;;;;5078477;28;20995;-84
2022/10/06 10:00:27;;;;;;;8.43;1.60;;;;;;;;;;5091250;27;20433;-86
2022/10/06 10:02:58;;;;;;;13.57;1.65;;;;;;;;;;5073128;28;20428;-86
2022/10/06 10:05:28;;;;;;;9.23;1.43;;;;;;;;;;5086962;28;20734;-86
2022/10/06 10:08:02;;;;;;;9.47;1.70;;;;;;;;;;5069822;28;20427;-86
2022/10/06 10:10:35;;;;;;;9.25;1.42;;;;;;;;;;5095122;28;20420;-87
2022/10/06 10:13:18;;;;;;;13.77;1.80;;;;;;;;;;5076311;28;20780;-85
2022/10/06 10:15:53;;;;;;;12.47;1.73;;;;;;;;;;5083873;28;20424;-85
2022/10/06 10:18:27;;;;;;;8.52;1.48;;;;;;;;;;5090372;28;20412;-85
2022/10/06 10:21:04;;;;;;;6.32;1.40;;;;;;;;;;5077740;28;20428;-85
2022/10/06 10:23:32;;;;;;;11.07;2.13;;;;;;;;;;5079426;28;20431;-85
2022/10/06 10:26:12;;;;;;;7.50;1.50;;;;;;;;;;5069428;28;20443;-84
2022/10/06 10:28:49;;;;;;;11.20;1.60;;;;;;;;;;5093861;28;21114;-86
2022/10/06 10:31:21;;;;;;;6.60;1.40;;;;;;;;;;5072313;28;20432;-85
2022/10/06 10:33:59;;;;;;;8.07;1.45;;;;;;;;;;5068648;28;21165;-86
2022/10/06 10:36:36;;;;;;;7.87;1.50;;;;;;;;;;5065155;28;20428;-84
2022/10/06 10:39:05;;;;;;;8.05;1.73;;;;;;;;;;5065551;28;20421;-86
2022/10/06 10:41:44;;;;;;;8.13;1.50;;;;;;;;;;5091550;28;20424;-86
2022/10/06 10:44:23;;;;;;;8.32;1.60;;;;;;;;;;5066000;28;20439;-85
2022/10/06 10:46:58;;;;;;;9.75;1.48;;;;;;;;;;5084935;28;20424;-86
2022/10/06 10:49:28;;;;;;;8.93;1.33;;;;;;;;;;5081948;28;20428;-84
2022/10/06 10:52:03;;;;;;;7.75;1.60;;;;;;;;;;5071927;28;20440;-84
2022/10/06 10:54:35;;;;;;;10.13;1.60;;;;;;;;;;5069557;28;20416;-86
2022/10/06 10:57:11;;;;;;;8.63;1.65;;;;;;;;;;5066496;28;20416;-84
2022/10/06 10:59:43;;;;;;;8.95;1.40;;;;;;;;;;5065491;28;20424;-85
2022/10/06 11:02:12;;;;;;;10.70;1.45;;;;;;;;;;5066360;28;20455;-85
2022/10/06 11:04:48;;;;;;;8.50;1.50;;;;;;;;;;5066587;28;20451;-83
2022/10/06 11:07:28;;;;;;;11.87;1.80;;;;;;;;;;5064184;28;20424;-83
2022/10/06 11:10:02;;;;;;;8.77;1.70;;;;;;;;;;5061443;28;20424;-85
2022/10/06 11:12:50;;;;;;;9.10;1.60;;;;;;;;;;5059579;28;20459;-86
2022/10/06 11:15:29;;;;;;;11.65;1.50;;;;;;;;;;5075706;28;20786;-85
2022/10/06 11:18:08;;;;;;;9.88;1.50;;;;;;;;;;5059184;28;20474;-85
2022/10/06 11:20:46;;;;;;;10.52;1.70;;;;;;;;;;5055442;28;20851;-86
2022/10/06 11:23:31;;;;;;;10.23;1.70;;;;;;;;;;5072866;28;20954;-87
2022/10/06 11:26:08;;;;;;;12.65;2.17;;;;;;;;;;5076388;28;20632;-84
2022/10/06 11:28:40;;;;;;;10.98;1.73;;;;;;;;;;5079993;28;20430;-84
2022/10/06 11:31:11;;;;;;;7.35;1.30;;;;;;;;;;5074153;28;20454;-84
2022/10/06 11:33:44;;;;;;;12.38;1.40;;;;;;;;;;5079790;28;20424;-86
2022/10/06 11:36:15;;;;;;;5.65;1.15;;;;;;;;;;5074520;28;20426;-86
2022/10/06 11:38:50;;;;;;;8.05;1.60;;;;;;;;;;5083221;28;20426;-86
2022/10/06 11:41:20;;;;;;;11.27;1.52;;;;;;;;;;5086928;28;20923;-87
2022/10/06 11:43:59;;;;;;;10.83;1.70;;;;;;;;;;5092957;28;20502;-86
2022/10/06 11:46:36;;;;;;;11.73;1.63;;;;;;;;;;5111503;28;20404;-85
2022/10/06 11:49:27;;;;;;;11.05;1.58;;;;;;;;;;5089281;28;20430;-86
2022/10/06 11:51:56;;;;;;;9.30;1.65;;;;;;;;;;5082551;28;20440;-86
2022/10/06 11:54:44;;;;;;;8.70;1.40;;;;;;;;;;5105931;28;20426;-88
2022/10/06 11:57:31;;;;;;;9.73;1.38;;;;;;;;;;5079200;28;20425;-87
2022/10/06 12:00:13;;;;;;;5.90;1.25;;;;;;;;;;5100821;28;20744;-86
2022/10/06 12:02:46;;;;;;;7.27;1.23;;;;;;;;;;5098780;27;20460;-86
2022/10/06 12:05:31;;;;;;;5.30;1.13;;;;;;;;;;5086054;28;20423;-86
2022/10/06 12:08:15;;;;;;;6.75;1.40;;;;;;;;;;5100790;28;20425;-84
2022/10/06 12:10:50;;;;;;;9.13;1.38;;;;;;;;;;5083511;28;21267;-86
2022/10/06 12:13:26;;;;;;;8.30;1.53;;;;;;;;;;5086663;28;20452;-85
2022/10/06 12:16:01;;;;;;;8.65;1.50;;;;;;;;;;5079933;28;20954;-87
2022/10/06 12:18:35;;;;;;;8.82;1.33;;;;;;;;;;5090101;28;20436;-87
2022/10/06 12:21:10;;;;;;;6.97;1.55;;;;;;;;;;5092909;28;20420;-85
2022/10/06 12:23:47;;;;;;;6.97;1.42;;;;;;;;;;5101814;28;20427;-85
2022/10/06 12:26:21;;;;;;;8.82;1.60;;;;;;;;;;5091224;28;20428;-86
2022/10/06 12:28:56;;;;;;;12.85;1.58;;;;;;;;;;5088486;28;20448;-86
2022/10/06 12:31:33;;;;;;;11.07;1.35;;;;;;;;;;5079692;28;20832;-86
2022/10/06 12:34:01;;;;;;;6.97;1.40;;;;;;;;;;5090927;28;20454;-86
2022/10/06 12:36:33;;;;;;;6.80;1.20;;;;;;;;;;5094890;28;20777;-86
2022/10/06 12:39:04;;;;;;;7.47;1.40;;;;;;;;;;5085971;28;20430;-87
2022/10/06 12:41:55;;;;;;;7.63;1.30;;;;;;;;;;5096514;28;20412;-85
2022/10/06 12:44:33;;;;;;;6.57;1.13;;;;;;;;;;5105427;27;20420;-87
2022/10/06 12:47:11;;;;;;;6.40;1.20;;;;;;;;;;5076738;28;20427;-85
2022/10/06 12:49:47;;;;;;;7.32;1.30;;;;;;;;;;5100836;28;20898;-87
2022/10/06 12:52:30;;;;;;;7.32;1.10;;;;;;;;;;5088948;28;20439;-85
2022/10/06 12:55:10;;;;;;;5.90;1.15;;;;;;;;;;5084625;28;20421;-86
2022/10/06 12:57:44;;;;;;;6.18;1.30;;;;;;;;;;5084149;28;20420;-86
2022/10/06 13:00:23;;;;;;;6.80;1.23;;;;;;;;;;5093077;28;20418;-86
2022/10/06 13:02:56;;;;;;;7.20;1.33;;;;;;;;;;5111007;27;20410;-85
2022/10/06 13:05:29;;;;;;;6.88;1.50;;;;;;;;;;5098762;27;20435;-87
2022/10/06 13:07:58;;;;;;;8.45;1.50;;;;;;;;;;5085733;28;20428;-85
2022/10/06 13:10:32;;;;;;;8.07;1.40;;;;;;;;;;5086706;28;20424;-85
2022/10/06 13:13:18;;;;;;;5.93;1.10;;;;;;;;;;5084404;28;20453;-87
2022/10/06 13:15:54;;;;;;;6.57;1.15;;;;;;;;;;5101136;27;20422;-86
2022/10/06 13:18:27;;;;;;;9.45;1.38;;;;;;;;;;5090372;28;20426;-86
2022/10/06 13:21:00;;;;;;;5.78;1.05;;;;;;;;;;5099931;28;20428;-85
2022/10/06 13:23:29;;;;;;;9.23;1.30;;;;;;;;;;5084771;28;20435;-85
2022/10/06 13:26:03;;;;;;;6.90;1.23;;;;;;;;;;5088094;28;20431;-86
2022/10/06 13:28:46;;;;;;;7.22;1.30;;;;;;;;;;5096866;28;20449;-86
2022/10/06 13:31:20;;;;;;;6.22;1.13;;;;;;;;;;5097021;28;20424;-86
2022/10/06 13:33:49;;;;;;;11.07;1.38;;;;;;;;;;5100132;28;20422;-87
2022/10/06 13:36:22;;;;;;;7.10;1.50;;;;;;;;;;5097864;28;20424;-85
2022/10/06 13:38:52;;;;;;;11.32;1.20;;;;;;;;;;5091859;28;20424;-84
2022/10/06 13:41:25;;;;;;;8.13;1.13;;;;;;;;;;5106150;28;20405;-85
2022/10/06 13:43:59;;;;;;;5.15;1.15;;;;;;;;;;5094500;28;20958;-86
2022/10/06 13:46:30;;;;;;;5.57;1.30;;;;;;;;;;5099708;28;20448;-85
2022/10/06 13:49:11;;;;;;;5.90;1.10;;;;;;;;;;5106184;28;20411;-86
2022/10/06 13:51:47;;;;;;;8.73;1.40;;;;;;;;;;5097912;28;20765;-84
2022/10/06 13:54:21;;;;;;;6.80;1.20;;;;;;;;;;5099971;28;20422;-85
2022/10/06 13:56:54;;;;;;;7.95;1.20;;;;;;;;;;5102016;28;20444;-86
2022/10/06 13:59:32;;;;;;;7.25;1.23;;;;;;;;;;5082304;28;20435;-86
2022/10/06 14:02:21;;;;;;;7.23;1.13;;;;;;;;;;5095359;28;20430;-85
2022/10/06 14:05:08;;;;;;;9.23;1.20;;;;;;;;;;5094311;28;20416;-86
2022/10/06 14:07:43;;;;;;;7.83;1.10;;;;;;;;;;5081206;28;21032;-85
2022/10/06 14:10:16;;;;;;;10.35;4.20;;;;;;;;;;5082764;28;20424;-86
2022/10/06 14:12:49;;;;;;;7.30;1.20;;;;;;;;;;5079730;28;20410;-84
2022/10/06 14:15:24;;;;;;;5.47;1.10;;;;;;;;;;5087436;28;20426;-83
2022/10/06 14:17:59;;;;;;;5.47;1.15;;;;;;;;;;5096107;28;20422;-85
2022/10/06 14:20:44;;;;;;;7.10;1.20;;;;;;;;;;5085199;28;20418;-84
2022/10/06 14:23:31;;;;;;;5.22;0.95;;;;;;;;;;5101107;28;20515;-83
2022/10/06 14:26:03;;;;;;;8.60;1.10;;;;;;;;;;5094197;28;20429;-87
2022/10/06 14:28:36;;;;;;;7.90;1.10;;;;;;;;;;5102257;28;20420;-84
2022/10/06 14:31:05;;;;;;;8.07;1.40;;;;;;;;;;5078133;28;20451;-87
2022/10/06 14:33:39;;;;;;;6.38;1.10;;;;;;;;;;5072962;28;20429;-86
2022/10/06 14:36:13;;;;;;;7.50;1.42;;;;;;;;;;5078229;28;20425;-85
2022/10/06 14:38:41;;;;;;;8.95;1.20;;;;;;;;;;5091302;28;20429;-88
2022/10/06 14:41:14;;;;;;;6.00;1.10;;;;;;;;;;5092343;28;20892;-86
2022/10/06 14:43:47;;;;;;;5.50;1.20;;;;;;;;;;5076357;28;20416;-87
2022/10/06 14:46:20;;;;;;;7.97;1.30;;;;;;;;;;5105112;27;20425;-86
2022/10/06 14:48:50;;;;;;;7.13;1.08;;;;;;;;;;5088039;28;20443;-86
2022/10/06 14:51:18;;;;;;;5.35;0.98;;;;;;;;;;5092970;28;20433;-86
2022/10/06 14:53:52;;;;;;;5.07;1.00;;;;;;;;;;5089633;28;20435;-86
2022/10/06 14:56:26;;;;;;;4.53;0.90;;;;;;;;;;5084535;28;20417;-88
2022/10/06 14:58:54;;;;;;;5.72;0.98;;;;;;;;;;5092751;28;20472;-85
2022/10/06 15:01:24;;;;;;;5.18;0.90;;;;;;;;;;5081051;28;20887;-88
2022/10/06 15:03:53;;;;;;;3.78;0.85;;;;;;;;;;5094395;28;20414;-86
2022/10/06 15:09:16;;;;;;;4.88;1.02;;;;;;;;;;5084813;28;20418;-86
2022/10/06 15:11:50;;;;;;;7.22;1.30;;;;;;;;;;5082043;28;20426;-88
2022/10/06 15:14:18;;;;;;;6.25;0.98;;;;;;;;;;5089481;28;20890;-86
2022/10/06 15:16:46;;;;;;;5.15;1.00;;;;;;;;;;5080447;28;20424;-85
2022/10/06 15:19:21;;;;;;;6.38;0.90;;;;;;;;;;5107585;28;20424;-88
2022/10/06 15:21:49;;;;;;;6.07;1.10;;;;;;;;;;5086434;28;20427;-85
2022/10/06 15:24:22;;;;;;;5.35;0.95;;;;;;;;;;5086537;28;20427;-90
2022/10/06 15:29:41;;;;;;;5.38;1.00;;;;;;;;;;5100295;28;20776;-86
2022/10/06 15:32:14;;;;;;;6.57;1.10;;;;;;;;;;5094339;28;20442;-86
2022/10/06 15:34:43;;;;;;;3.70;0.85;;;;;;;;;;5088445;28;20428;-85
2022/10/06 15:37:11;;;;;;;6.72;1.13;;;;;;;;;;5104536;28;20424;-86